Time;durP1;ratioP1;P1;durP2;ratioP2;P2;SDS_P1;SDS_P2;PMS_P1;PMS_P2;Temp;Humidity;BMP_temperature;BMP_pressure;BME280_temperature;BME280_humidity;BME280_pressure;Samples;Min_cycle;Max_cycle;Signal;HPM_P1;HPM_P2
2021/01/26 00:05:16;;;;;;;29.98;12.33;;;;;;;0.28;100.00;98037.93;4063887;86;20702;-78
2021/01/26 00:11:18;;;;;;;28.62;12.98;;;;;;;0.22;100.00;98039.50;3989040;88;43428;-77
2021/01/26 00:17:20;;;;;;;27.80;13.13;;;;;;;0.22;100.00;98047.44;4059123;86;43390;-77
2021/01/26 00:23:23;;;;;;;28.95;12.82;;;;;;;0.23;100.00;98053.03;4059613;86;43449;-78
2021/01/26 00:29:25;;;;;;;26.45;12.10;;;;;;;0.25;100.00;98050.21;4061914;85;28570;-76
2021/01/26 00:35:30;;;;;;;27.98;13.32;;;;;;;0.22;100.00;98059.33;4072633;86;43449;-76
2021/01/26 00:41:32;;;;;;;26.60;12.00;;;;;;;0.14;100.00;98064.73;4062179;85;28578;-77
2021/01/26 00:47:35;;;;;;;25.80;12.10;;;;;;;0.11;100.00;98065.12;4057186;86;43428;-76
2021/01/26 00:53:38;;;;;;;28.10;12.75;;;;;;;0.16;100.00;98069.84;4064843;86;28704;-77
2021/01/26 00:59:42;;;;;;;28.47;13.35;;;;;;;0.11;100.00;98077.84;3988407;88;43491;-77
2021/01/26 01:05:44;;;;;;;28.05;13.03;;;;;;;0.16;100.00;98083.06;4048929;86;43425;-77
2021/01/26 01:11:46;;;;;;;26.05;11.83;;;;;;;0.00;100.00;98087.59;3990753;88;43068;-77
2021/01/26 01:17:49;;;;;;;29.98;12.18;;;;;;;0.01;100.00;98093.67;4062542;86;43508;-78
2021/01/26 01:23:51;;;;;;;33.38;13.90;;;;;;;-0.08;100.00;98092.98;4063178;86;44160;-78
2021/01/26 01:29:53;;;;;;;30.68;12.90;;;;;;;-0.09;100.00;98101.39;4119594;85;43488;-78
2021/01/26 01:35:55;;;;;;;28.23;11.57;;;;;;;-0.16;100.00;98094.71;4124911;85;43424;-78
2021/01/26 01:41:57;;;;;;;29.57;12.80;;;;;;;-0.41;100.00;98095.52;4122715;85;43388;-78
2021/01/26 01:48:08;;;;;;;30.32;13.03;;;;;;;-0.53;100.00;98091.70;4128422;85;43416;-78
2021/01/26 01:54:34;;;;;;;30.35;12.37;;;;;;;-0.57;100.00;98092.56;4138388;85;43401;-77
2021/01/26 02:00:37;;;;;;;24.77;11.75;;;;;;;-0.52;100.00;98084.09;4123683;85;43327;-77
2021/01/26 02:06:42;;;;;;;23.32;11.05;;;;;;;-0.38;100.00;98096.98;4058237;86;44781;-76
2021/01/26 02:12:44;;;;;;;24.13;11.57;;;;;;;-0.35;100.00;98097.44;4071477;86;28587;-76
2021/01/26 02:19:16;;;;;;;26.17;10.95;;;;;;;-0.36;100.00;98097.61;4055935;86;43536;-76
2021/01/26 02:26:14;;;;;;;23.47;11.75;;;;;;;-0.40;100.00;98098.47;4058674;86;42956;-75
2021/01/26 02:32:24;;;;;;;30.32;12.55;;;;;;;-0.36;100.00;98098.44;4007889;87;43481;-76
2021/01/26 02:38:59;;;;;;;25.35;12.05;;;;;;;-0.40;100.00;98103.75;4004678;86;43403;-76
2021/01/26 02:45:30;;;;;;;27.45;13.03;;;;;;;-0.37;100.00;98108.66;4057209;86;28646;-76
2021/01/26 02:51:49;;;;;;;30.77;13.53;;;;;;;-0.44;100.00;98111.73;4051494;86;43425;-75
2021/01/26 02:58:17;;;;;;;30.05;14.43;;;;;;;-0.38;100.00;98105.70;3985818;88;43435;-77
2021/01/26 03:04:24;;;;;;;32.03;13.48;;;;;;;-0.37;100.00;98113.94;4102633;85;44118;-77
2021/01/26 03:10:32;;;;;;;32.88;14.68;;;;;;;-0.44;100.00;98113.06;4058789;86;44131;-77
2021/01/26 03:16:36;;;;;;;34.98;14.43;;;;;;;-0.54;100.00;98127.84;4121139;85;44487;-76
2021/01/26 03:22:41;;;;;;;37.35;15.35;;;;;;;-0.61;100.00;98134.34;4056443;86;44546;-76
2021/01/26 03:28:44;;;;;;;30.43;12.93;;;;;;;-0.57;100.00;98140.09;4120436;85;43501;-76
2021/01/26 03:34:47;;;;;;;29.48;12.58;;;;;;;-0.67;100.00;98139.53;4120699;85;43506;-76
2021/01/26 03:40:53;;;;;;;29.92;14.00;;;;;;;-0.62;100.00;98148.55;4105433;86;43768;-75
2021/01/26 03:47:02;;;;;;;;;;;;;;;-0.60;100.00;98150.51;4094578;86;28554;-75
2021/01/26 03:53:37;;;;;;;28.52;12.10;;;;;;;-0.66;100.00;98148.61;4083160;86;43487;-76
2021/01/26 04:00:14;;;;;;;29.92;12.30;;;;;;;-0.76;100.00;98146.73;4088949;86;28671;-76
2021/01/26 04:06:27;;;;;;;29.35;13.75;;;;;;;-0.73;100.00;98149.83;4088392;86;43661;-76
2021/01/26 04:12:35;;;;;;;32.20;12.65;;;;;;;-0.64;100.00;98148.41;4089965;86;43759;-76
2021/01/26 04:18:41;;;;;;;34.55;14.58;;;;;;;-0.59;100.00;98152.14;4089729;87;44139;-76
2021/01/26 04:24:43;;;;;;;31.48;13.83;;;;;;;-0.59;100.00;98153.46;4090002;86;44099;-75
2021/01/26 04:30:45;;;;;;;32.17;12.95;;;;;;;-0.58;100.00;98156.94;4087320;86;44095;-77
2021/01/26 04:36:47;;;;;;;33.25;15.08;;;;;;;-0.51;100.00;98158.34;4088087;86;44131;-76
2021/01/26 04:42:58;;;;;;;39.33;15.53;;;;;;;-0.59;100.00;98174.59;4089595;86;44465;-77
2021/01/26 04:49:17;;;;;;;36.70;15.45;;;;;;;-0.57;100.00;98175.73;4087321;86;44454;-76
2021/01/26 04:55:37;;;;;;;29.52;13.15;;;;;;;-0.50;100.00;98187.23;4014443;87;43395;-77
2021/01/26 05:01:53;;;;;;;32.63;13.28;;;;;;;-0.41;100.00;98193.23;4087359;86;44099;-76
2021/01/26 05:08:01;;;;;;;33.38;13.98;;;;;;;-0.44;100.00;98198.38;4084921;86;44107;-76
2021/01/26 05:14:08;;;;;;;31.35;13.43;;;;;;;-0.47;100.00;98205.34;4089345;86;43787;-76
2021/01/26 05:20:21;;;;;;;28.27;13.32;;;;;;;-0.49;100.00;98202.55;4066488;86;43393;-75
2021/01/26 05:26:23;;;;;;;29.48;13.50;;;;;;;-0.46;100.00;98207.50;4089545;86;43401;-76
2021/01/26 05:32:27;;;;;;;29.75;12.85;;;;;;;-0.40;100.00;98217.33;4092047;86;43405;-76
2021/01/26 05:38:30;;;;;;;29.05;13.38;;;;;;;-0.47;100.00;98221.67;4089129;85;43500;-76
2021/01/26 05:44:36;;;;;;;30.43;12.33;;;;;;;-0.44;100.00;98237.19;4129290;85;43442;-76
2021/01/26 05:50:41;;;;;;;27.85;12.15;;;;;;;-0.59;100.00;98231.88;4066802;86;43473;-77
2021/01/26 05:56:50;;;;;;;;;;;;;;;-0.49;100.00;98243.00;4004952;87;28642;-77
2021/01/26 06:03:20;;;;;;;27.05;12.78;;;;;;;-0.55;100.00;98249.50;3994693;88;43435;-76
2021/01/26 06:09:39;;;;;;;26.27;11.30;;;;;;;-0.69;100.00;98256.38;4058793;87;42889;-76
2021/01/26 06:15:42;;;;;;;30.00;11.40;;;;;;;-0.74;100.00;98258.23;4058749;86;43406;-75
2021/01/26 06:21:51;;;;;;;26.37;12.35;;;;;;;-0.69;100.00;98260.34;4121318;85;42895;-76
2021/01/26 06:28:08;;;;;;;23.60;11.12;;;;;;;-0.58;100.00;98279.20;4121802;85;44449;-76
2021/01/26 06:34:46;;;;;;;26.02;12.25;;;;;;;-0.48;100.00;98278.14;4108962;85;43156;-76
2021/01/26 06:41:00;;;;;;;25.02;11.15;;;;;;;-0.46;100.00;98273.52;4109879;85;43717;-76
2021/01/26 06:47:17;;;;;;;29.27;13.58;;;;;;;-0.54;100.00;98284.16;4088906;87;43428;-76
2021/01/26 06:53:53;;;;;;;26.82;13.20;;;;;;;-0.51;100.00;98296.99;4089309;86;43345;-76
2021/01/26 07:00:10;;;;;;;31.23;14.20;;;;;;;-0.46;100.00;98294.66;4089531;86;44118;-76
2021/01/26 07:06:39;;;;;;;35.15;15.85;;;;;;;-0.45;100.00;98300.25;4088712;86;44138;-76
2021/01/26 07:13:02;;;;;;;32.58;13.38;;;;;;;-0.61;100.00;98303.33;4087263;86;44214;-76
2021/01/26 07:19:50;;;;;;;25.37;11.40;;;;;;;-0.51;100.00;98305.75;4089729;86;43345;-77
2021/01/26 07:26:17;;;;;;;28.25;11.97;;;;;;;-0.40;100.00;98315.05;4087217;86;43456;-75
2021/01/26 07:32:47;;;;;;;23.42;10.90;;;;;;;-0.44;100.00;98317.22;4088177;86;44575;-75
2021/01/26 07:39:29;;;;;;;25.97;11.55;;;;;;;-0.27;100.00;98310.98;4087673;86;42993;-76
2021/01/26 07:45:46;;;;;;;26.02;11.33;;;;;;;-0.25;100.00;98327.50;4120564;85;43053;-76
2021/01/26 07:51:56;;;;;;;27.00;12.13;;;;;;;-0.13;100.00;98340.59;4121080;85;43329;-76
2021/01/26 07:58:06;;;;;;;25.50;11.53;;;;;;;-0.18;100.00;98330.56;4120300;85;28556;-77
2021/01/26 08:04:08;;;;;;;25.10;12.88;;;;;;;-0.09;100.00;98334.45;4121460;85;42876;-78
2021/01/26 08:10:21;;;;;;;26.73;12.40;;;;;;;0.02;100.00;98331.86;3993513;88;43355;-78
2021/01/26 08:16:47;;;;;;;31.95;13.50;;;;;;;-0.09;100.00;98334.45;3993315;88;44109;-77
2021/01/26 08:23:03;;;;;;;31.27;12.98;;;;;;;0.05;100.00;98338.09;3990295;88;43411;-77
2021/01/26 08:29:06;;;;;;;27.27;12.53;;;;;;;0.09;100.00;98335.44;4059685;86;28676;-77
2021/01/26 08:35:25;;;;;;;28.52;12.58;;;;;;;0.20;100.00;98344.73;4120854;85;43416;-77
2021/01/26 08:41:40;;;;;;;28.73;12.33;;;;;;;0.16;100.00;98350.06;4055724;86;43410;-75
2021/01/26 08:47:58;;;;;;;26.40;12.25;;;;;;;0.31;100.00;98361.46;3982883;88;43049;-76
2021/01/26 08:54:01;;;;;;;24.12;10.70;;;;;;;0.46;100.00;98379.98;4049226;86;44432;-76
2021/01/26 09:00:27;;;;;;;23.67;11.38;;;;;;;0.75;100.00;98372.25;4049889;86;44470;-77
2021/01/26 09:06:44;;;;;;;26.90;11.93;;;;;;;1.00;100.00;98382.52;3982971;88;28629;-77
2021/01/26 09:12:50;;;;;;;24.67;11.85;;;;;;;1.18;100.00;98385.59;4049172;86;43646;-77
2021/01/26 09:19:05;;;;;;;26.52;12.70;;;;;;;1.17;100.00;98393.22;4046132;86;28567;-77
2021/01/26 09:25:35;;;;;;;29.32;13.62;;;;;;;1.16;100.00;98402.67;4046572;86;28644;-77
2021/01/26 09:31:38;;;;;;;29.40;13.88;;;;;;;1.05;100.00;98411.92;4023563;87;28614;-77
2021/01/26 09:37:40;;;;;;;28.27;13.62;;;;;;;0.92;100.00;98417.86;3980958;88;28643;-77
2021/01/26 09:43:54;;;;;;;31.23;14.47;;;;;;;0.91;100.00;98423.64;4036800;86;28597;-78
2021/01/26 09:50:14;;;;;;;31.05;14.47;;;;;;;0.75;100.00;98421.20;3983064;88;44169;-78
2021/01/26 09:56:21;;;;;;;33.38;14.63;;;;;;;0.85;100.00;98434.14;3982172;88;44113;-77
2021/01/26 10:02:26;;;;;;;33.50;15.23;;;;;;;0.54;100.00;98429.36;4046330;86;44095;-77
2021/01/26 10:08:32;;;;;;;31.30;13.70;;;;;;;0.66;100.00;98437.16;3993070;88;35851;-78
2021/01/26 10:14:34;;;;;;;27.32;12.35;;;;;;;1.09;100.00;98439.66;4050653;86;28635;-77
2021/01/26 10:20:48;;;;;;;26.52;12.03;;;;;;;1.38;100.00;98431.35;4120077;85;43069;-77
2021/01/26 10:26:51;;;;;;;23.87;11.73;;;;;;;1.28;100.00;98434.28;4122466;84;28652;-79
2021/01/26 10:32:53;;;;;;;25.62;11.38;;;;;;;1.39;100.00;98440.94;4152170;83;28655;-77
2021/01/26 10:38:58;;;;;;;28.15;12.65;;;;;;;1.59;100.00;98439.02;4124185;85;28648;-77
2021/01/26 10:45:00;;;;;;;31.73;12.90;;;;;;;1.88;100.00;98435.95;4118673;83;28631;-78
2021/01/26 10:51:29;;;;;;;28.35;13.65;;;;;;;1.95;100.00;98428.85;4049524;86;28678;-81
2021/01/26 10:57:33;;;;;;;26.10;12.25;;;;;;;1.80;100.00;98428.42;3975261;88;28662;-78
2021/01/26 11:03:35;;;;;;;27.30;12.03;;;;;;;1.47;100.00;98430.72;4123643;85;28644;-78
2021/01/26 11:09:38;;;;;;;26.35;12.03;;;;;;;1.26;100.00;98432.33;4123083;85;28687;-78
2021/01/26 11:15:40;;;;;;;30.92;12.80;;;;;;;1.33;100.00;98440.34;4128912;84;28560;-77
2021/01/26 11:21:43;;;;;;;25.77;12.28;;;;;;;1.38;100.00;98447.25;4123393;85;28651;-77
2021/01/26 11:27:46;;;;;;;27.25;12.45;;;;;;;1.53;100.00;98449.86;4123574;85;28580;-78
2021/01/26 11:33:49;;;;;;;28.23;12.03;;;;;;;1.54;100.00;98442.23;4122026;84;28573;-88
2021/01/26 11:39:51;;;;;;;26.52;11.53;;;;;;;1.70;100.00;98439.01;4166852;83;28575;-86
2021/01/26 11:45:53;;;;;;;24.52;10.58;;;;;;;1.63;100.00;98434.48;4137387;85;28599;-79
2021/01/26 11:51:55;;;;;;;24.55;10.48;;;;;;;1.63;100.00;98427.86;4124299;85;28631;-79
2021/01/26 11:57:58;;;;;;;21.90;10.48;;;;;;;1.27;100.00;98432.64;4050813;86;44518;-77
2021/01/26 12:04:00;;;;;;;24.45;10.10;;;;;;;1.42;100.00;98433.13;4050545;86;28575;-77
2021/01/26 12:10:05;;;;;;;23.47;11.03;;;;;;;1.89;100.00;98428.30;4049791;86;28572;-77
2021/01/26 12:16:07;;;;;;;19.80;9.85;;;;;;;1.74;100.00;98421.22;4045734;86;28641;-78
2021/01/26 12:22:12;;;;;;;19.55;9.48;;;;;;;1.89;100.00;98425.66;3982382;88;28587;-76
2021/01/26 12:28:14;;;;;;;20.57;9.68;;;;;;;2.01;100.00;98428.11;4043417;86;28710;-76
2021/01/26 12:34:16;;;;;;;18.95;8.58;;;;;;;1.85;100.00;98431.84;4044602;87;28649;-76
2021/01/26 12:40:19;;;;;;;22.05;10.08;;;;;;;1.76;100.00;98442.25;3971762;88;44512;-76
2021/01/26 12:46:21;;;;;;;23.42;10.08;;;;;;;1.61;100.00;98440.45;4053385;86;44455;-77
2021/01/26 12:52:24;;;;;;;21.97;9.83;;;;;;;1.31;100.00;98432.60;4062427;85;43938;-79
2021/01/26 12:58:27;;;;;;;18.45;9.18;;;;;;;1.28;100.00;98431.63;4057679;86;28563;-77
2021/01/26 13:04:29;;;;;;;21.17;10.53;;;;;;;1.31;100.00;98433.93;4049730;86;28602;-81
2021/01/26 13:10:33;;;;;;;22.37;10.63;;;;;;;1.30;100.00;98440.23;4060652;86;28559;-81
2021/01/26 13:16:38;;;;;;;22.00;9.85;;;;;;;1.28;100.00;98448.84;4053854;86;44537;-80
2021/01/26 13:22:42;;;;;;;20.72;8.90;;;;;;;1.19;100.00;98449.46;3974756;88;28562;-81
2021/01/26 13:28:45;;;;;;;20.80;10.38;;;;;;;1.49;100.00;98452.06;4046734;86;28593;-80
2021/01/26 13:34:48;;;;;;;22.70;9.80;;;;;;;1.38;100.00;98452.55;4063762;86;28574;-80
2021/01/26 13:40:51;;;;;;;20.50;9.20;;;;;;;1.32;100.00;98459.89;4061448;86;28589;-80
2021/01/26 13:46:54;;;;;;;17.30;8.33;;;;;;;1.08;100.00;98453.91;4063602;86;28640;-81
2021/01/26 13:52:57;;;;;;;21.12;9.90;;;;;;;0.91;100.00;98444.81;4126627;85;28616;-76
2021/01/26 13:58:59;;;;;;;19.90;9.58;;;;;;;0.88;100.00;98454.95;4126307;85;28561;-77
2021/01/26 14:05:04;;;;;;;22.35;9.53;;;;;;;0.87;100.00;98454.63;4126675;85;28573;-76
2021/01/26 14:11:06;;;;;;;20.70;9.45;;;;;;;0.76;100.00;98461.22;4055325;86;28567;-77
2021/01/26 14:17:08;;;;;;;23.77;11.80;;;;;;;0.55;100.00;98468.03;4055271;86;43654;-77
2021/01/26 14:23:11;;;;;;;23.67;11.20;;;;;;;0.32;100.00;98464.11;4127958;84;42895;-77
2021/01/26 14:29:13;;;;;;;24.70;11.68;;;;;;;0.17;100.00;98463.58;4123162;85;43322;-77
2021/01/26 14:35:20;;;;;;;21.27;10.20;;;;;;;0.05;100.00;98462.33;4141148;84;44485;-77
2021/01/26 14:41:23;;;;;;;22.95;9.95;;;;;;;-0.08;100.00;98465.07;4123358;85;44005;-77
2021/01/26 14:47:25;;;;;;;23.47;10.23;;;;;;;-0.24;100.00;98471.29;4126867;85;44481;-78
2021/01/26 14:53:28;;;;;;;21.00;9.40;;;;;;;-0.36;100.00;98478.81;4128853;85;43951;-78
2021/01/26 14:59:30;;;;;;;22.00;10.58;;;;;;;-0.40;100.00;98477.50;4061508;85;44624;-78
2021/01/26 15:05:34;;;;;;;20.82;9.15;;;;;;;-0.54;100.00;98484.33;4132845;85;43927;-78
2021/01/26 15:11:36;;;;;;;22.48;10.08;;;;;;;-0.58;100.00;98484.37;4126916;85;44485;-77
2021/01/26 15:17:38;;;;;;;22.87;11.10;;;;;;;-0.63;100.00;98493.28;4129123;85;44464;-77
2021/01/26 15:23:42;;;;;;;25.43;11.48;;;;;;;-0.75;100.00;98496.82;4132985;84;42917;-76
2021/01/26 15:29:46;;;;;;;21.05;9.45;;;;;;;-0.77;100.00;98507.55;4129183;85;44072;-76
2021/01/26 15:35:48;;;;;;;24.57;11.15;;;;;;;-0.67;100.00;98516.59;4133398;85;43490;-77
2021/01/26 15:41:51;;;;;;;23.40;10.75;;;;;;;-0.53;100.00;98512.90;4128434;85;44465;-76
2021/01/26 15:47:53;;;;;;;25.92;11.65;;;;;;;-0.32;100.00;98523.69;4086044;86;43298;-76
2021/01/26 15:53:56;;;;;;;29.57;13.48;;;;;;;-0.23;100.00;98528.42;4091800;86;43389;-77
2021/01/26 15:59:58;;;;;;;30.62;13.93;;;;;;;-0.12;100.00;98532.50;4085814;86;43849;-77
2021/01/26 16:06:02;;;;;;;24.60;12.58;;;;;;;-0.10;100.00;98541.07;4089271;86;43762;-77
2021/01/26 16:12:06;;;;;;;23.85;11.03;;;;;;;-0.06;100.00;98539.71;4011825;87;44081;-77
2021/01/26 16:18:10;;;;;;;30.05;13.00;;;;;;;-0.13;100.00;98540.11;4088310;86;28599;-79
2021/01/26 16:24:13;;;;;;;30.70;13.45;;;;;;;-0.31;100.00;98539.86;4084088;86;43414;-78
2021/01/26 16:30:20;;;;;;;23.50;11.45;;;;;;;-0.51;100.00;98546.55;4085211;86;42911;-78
2021/01/26 16:36:22;;;;;;;30.88;13.58;;;;;;;-0.67;100.00;98542.16;4112497;84;43389;-78
2021/01/26 16:42:24;;;;;;;35.10;15.03;;;;;;;-0.78;100.00;98540.70;4093806;85;44108;-77
2021/01/26 16:48:27;;;;;;;29.30;14.45;;;;;;;-0.91;100.00;98539.94;4127432;85;43462;-78
2021/01/26 16:54:30;;;;;;;31.55;14.55;;;;;;;-0.99;100.00;98541.59;4136739;84;44126;-78
2021/01/26 17:00:35;;;;;;;32.20;14.05;;;;;;;-1.03;100.00;98536.82;4136504;84;44255;-79
2021/01/26 17:06:39;;;;;;;32.28;14.63;;;;;;;-1.10;100.00;98543.75;4130762;84;44147;-77
2021/01/26 17:12:42;;;;;;;33.50;14.07;;;;;;;-1.20;100.00;98551.86;4127745;85;44102;-78
2021/01/26 17:18:45;;;;;;;34.88;15.30;;;;;;;-1.18;100.00;98556.47;4133166;85;44165;-78
2021/01/26 17:24:51;;;;;;;;;;;;;;;-1.31;100.00;98559.13;4137835;85;28605;-78
2021/01/26 17:30:56;;;;;;;33.13;14.03;;;;;;;-1.30;100.00;98562.56;4123203;85;44173;-77
2021/01/26 17:36:58;;;;;;;36.40;16.60;;;;;;;-1.28;100.00;98565.38;4133528;85;28579;-76
2021/01/26 17:43:01;;;;;;;39.13;17.62;;;;;;;-1.23;100.00;98562.75;4059608;86;44457;-78
2021/01/26 17:49:03;;;;;;;35.45;16.15;;;;;;;-1.24;100.00;98574.30;3992518;88;44133;-76
2021/01/26 17:55:06;;;;;;;35.43;16.48;;;;;;;-1.20;100.00;98566.37;3991584;88;44523;-79
2021/01/26 18:01:10;;;;;;;34.08;16.62;;;;;;;-1.18;100.00;98574.45;4056831;86;44104;-78
2021/01/26 18:07:12;;;;;;;36.03;17.20;;;;;;;-1.12;100.00;98570.32;4062686;86;44490;-77
2021/01/26 18:13:14;;;;;;;37.70;17.30;;;;;;;-1.02;100.00;98575.41;4060394;86;44467;-77
2021/01/26 18:19:17;;;;;;;35.25;16.73;;;;;;;-0.91;100.00;98572.92;4124203;85;44115;-79
2021/01/26 18:25:23;;;;;;;37.73;17.07;;;;;;;-0.82;100.00;98573.23;4132057;85;44473;-78
2021/01/26 18:31:25;;;;;;;39.05;17.45;;;;;;;-0.72;100.00;98591.03;4115617;84;44475;-77
2021/01/26 18:37:28;;;;;;;34.18;16.02;;;;;;;-0.62;100.00;98591.34;4122137;85;44086;-78
2021/01/26 18:43:30;;;;;;;34.90;15.78;;;;;;;-0.58;100.00;98589.48;4125824;85;44428;-76
2021/01/26 18:49:32;;;;;;;33.28;14.98;;;;;;;-0.50;100.00;98594.42;4126549;85;44129;-76
2021/01/26 18:55:35;;;;;;;32.28;15.35;;;;;;;-0.47;100.00;98592.27;4126883;85;44082;-76
2021/01/26 19:01:37;;;;;;;38.50;16.15;;;;;;;-0.43;100.00;98601.48;4126671;85;44468;-77
2021/01/26 19:07:41;;;;;;;33.40;14.15;;;;;;;-0.35;100.00;98602.45;4124267;85;44133;-78
2021/01/26 19:13:45;;;;;;;33.58;15.50;;;;;;;-0.38;100.00;98599.66;4122375;85;44156;-76
2021/01/26 19:19:47;;;;;;;34.38;15.00;;;;;;;-0.35;100.00;98606.42;4116432;84;44085;-77
2021/01/26 19:25:51;;;;;;;31.27;13.78;;;;;;;-0.33;100.00;98610.55;4123804;85;44109;-79
2021/01/26 19:31:55;;;;;;;28.12;12.65;;;;;;;-0.31;100.00;98620.95;4124948;85;43391;-78
2021/01/26 19:37:58;;;;;;;27.15;12.05;;;;;;;-0.29;100.00;98622.92;4124537;85;43411;-77
2021/01/26 19:44:00;;;;;;;24.10;11.05;;;;;;;-0.25;100.00;98622.08;4118302;85;43817;-77
2021/01/26 19:50:06;;;;;;;23.67;10.53;;;;;;;-0.29;100.00;98622.41;3997619;88;44440;-79
2021/01/26 19:56:10;;;;;;;23.75;10.93;;;;;;;-0.30;100.00;98614.67;4099902;85;28620;-81
2021/01/26 20:02:12;;;;;;;22.73;10.60;;;;;;;-0.34;100.00;98620.78;4112913;85;44433;-81
2021/01/26 20:08:14;;;;;;;23.18;11.22;;;;;;;-0.30;100.00;98623.91;4105454;85;44054;-80
2021/01/26 20:14:17;;;;;;;24.70;10.80;;;;;;;-0.36;100.00;98628.06;4059980;87;42912;-81
2021/01/26 20:20:20;;;;;;;27.75;11.83;;;;;;;-0.40;100.00;98634.66;4114730;85;43447;-80
2021/01/26 20:26:23;;;;;;;27.45;12.10;;;;;;;-0.48;100.00;98642.13;4114791;85;43438;-81
2021/01/26 20:32:26;;;;;;;23.98;11.35;;;;;;;-0.55;100.00;98642.98;4055064;86;42912;-81
2021/01/26 20:38:29;;;;;;;26.12;11.30;;;;;;;-0.64;100.00;98653.55;4110848;85;42926;-80
2021/01/26 20:44:32;;;;;;;30.08;12.40;;;;;;;-0.71;100.00;98649.44;4073240;86;43429;-81
2021/01/26 20:50:36;;;;;;;29.27;12.95;;;;;;;-0.80;100.00;98656.20;4047791;87;43442;-82
2021/01/26 20:56:41;;;;;;;31.75;12.98;;;;;;;-0.92;100.00;98651.27;4063317;86;44135;-81
2021/01/26 21:02:45;;;;;;;28.85;13.00;;;;;;;-1.02;100.00;98653.25;4068195;85;43468;-79
2021/01/26 21:08:48;;;;;;;31.37;13.60;;;;;;;-1.13;100.00;98658.38;4062627;86;44131;-79
2021/01/26 21:14:50;;;;;;;32.83;14.00;;;;;;;-1.27;100.00;98655.39;4067565;86;44110;-81
2021/01/26 21:20:55;;;;;;;31.97;13.55;;;;;;;-1.36;100.00;98672.19;4070309;86;44107;-80
2021/01/26 21:27:00;;;;;;;33.58;14.50;;;;;;;-1.41;100.00;98666.59;4058413;86;44127;-82
2021/01/26 21:33:04;;;;;;;34.38;14.90;;;;;;;-1.49;100.00;98667.89;4005198;87;44085;-80
2021/01/26 21:39:06;;;;;;;37.85;16.70;;;;;;;-1.51;100.00;98665.44;4068464;86;44438;-80
2021/01/26 21:45:11;;;;;;;37.33;15.32;;;;;;;-1.54;100.00;98671.02;4041800;87;44477;-80
2021/01/26 21:51:13;;;;;;;37.03;13.70;;;;;;;-1.53;100.00;98681.08;4117535;85;44492;-80
2021/01/26 21:57:15;;;;;;;40.58;16.65;;;;;;;-1.50;100.00;98684.23;4123672;85;44488;-81
2021/01/26 22:03:18;;;;;;;39.25;14.95;;;;;;;-1.42;100.00;98678.13;4147282;85;44444;-81
2021/01/26 22:09:20;;;;;;;40.73;16.70;;;;;;;-1.35;100.00;98683.10;4143419;85;44488;-81
2021/01/26 22:15:26;;;;;;;40.75;16.52;;;;;;;-1.30;100.00;98675.51;4141516;85;44455;-81
2021/01/26 22:21:28;;;;;;;35.80;15.70;;;;;;;-1.20;100.00;98675.34;4133969;85;28565;-81
2021/01/26 22:27:30;;;;;;;37.45;15.90;;;;;;;-1.12;100.00;98665.30;4141193;84;44500;-79
2021/01/26 22:33:32;;;;;;;38.10;16.60;;;;;;;-1.06;100.00;98671.73;4136274;85;44444;-80
2021/01/26 22:39:34;;;;;;;38.67;16.00;;;;;;;-1.04;100.00;98677.19;3998280;88;44530;-80
2021/01/26 22:45:38;;;;;;;40.10;16.80;;;;;;;-1.01;100.00;98681.29;3996961;88;44538;-79
2021/01/26 22:51:40;;;;;;;37.60;16.32;;;;;;;-0.99;100.00;98688.06;4046214;87;44475;-80
2021/01/26 22:57:44;;;;;;;37.08;14.53;;;;;;;-0.92;100.00;98688.73;4059499;86;44438;-80
2021/01/26 23:03:46;;;;;;;40.40;16.05;;;;;;;-0.92;100.00;98682.13;4045685;87;44455;-79
2021/01/26 23:09:50;;;;;;;36.35;15.13;;;;;;;-0.96;100.00;98680.80;4001526;88;44459;-80
2021/01/26 23:15:56;;;;;;;37.15;15.63;;;;;;;-1.02;100.00;98688.40;4066582;85;44501;-79
2021/01/26 23:21:59;;;;;;;37.65;16.30;;;;;;;-1.11;100.00;98685.42;4062434;86;44497;-80
2021/01/26 23:28:03;;;;;;;41.15;16.02;;;;;;;-1.21;100.00;98678.16;4002961;87;44488;-80
2021/01/26 23:34:05;;;;;;;34.35;14.20;;;;;;;-1.36;100.00;98676.66;4010385;88;44125;-80
2021/01/26 23:40:10;;;;;;;36.95;14.30;;;;;;;-1.51;100.00;98670.72;4126313;85;44473;-80
2021/01/26 23:46:12;;;;;;;39.53;15.28;;;;;;;-1.64;100.00;98669.02;4122951;85;44445;-79
2021/01/26 23:52:18;;;;;;;35.00;14.90;;;;;;;-1.76;100.00;98667.19;4129565;85;44283;-79
2021/01/26 23:58:22;;;;;;;33.88;14.75;;;;;;;-1.83;100.00;98671.78;4125447;85;28568;-81
